Time;durP1;ratioP1;P1;durP2;ratioP2;P2;SDS_P1;SDS_P2;PMS_P1;PMS_P2;Temp;Humidity;BMP_temperature;BMP_pressure;BME280_temperature;BME280_humidity;BME280_pressure;Samples;Min_cycle;Max_cycle;Signal;HPM_P1;HPM_P2
2023/06/20 00:02:16;;;;;;;7.15;3.17;;;17.50;99.90;;;;;;5065212;28;20053;-61
2023/06/20 00:04:44;;;;;;;7.10;2.90;;;17.50;99.90;;;;;;5065796;28;20047;-60
2023/06/20 00:07:12;;;;;;;6.40;3.10;;;17.40;99.90;;;;;;5076288;28;20044;-61
2023/06/20 00:09:39;;;;;;;5.38;3.17;;;17.40;99.90;;;;;;5066501;28;20395;-63
2023/06/20 00:12:07;;;;;;;6.03;2.95;;;17.40;99.90;;;;;;5057184;28;20037;-61
2023/06/20 00:14:37;;;;;;;5.22;2.58;;;17.30;99.90;;;;;;5053868;28;20044;-62
2023/06/20 00:17:05;;;;;;;5.70;2.85;;;17.30;99.90;;;;;;5055847;28;20558;-60
2023/06/20 00:19:33;;;;;;;6.13;2.53;;;17.30;99.90;;;;;;5065333;28;20395;-61
2023/06/20 00:22:03;;;;;;;7.82;3.55;;;17.30;99.90;;;;;;5063598;28;20048;-60
2023/06/20 00:24:32;;;;;;;10.23;2.80;;;17.30;99.90;;;;;;5056269;28;20400;-60
2023/06/20 00:27:01;;;;;;;6.28;3.13;;;17.30;99.90;;;;;;5054722;28;20131;-61
2023/06/20 00:29:29;;;;;;;8.30;2.97;;;17.30;99.90;;;;;;5065998;28;20471;-61
2023/06/20 00:31:57;;;;;;;7.15;3.03;;;17.20;99.90;;;;;;5049822;28;20512;-61
2023/06/20 00:34:25;;;;;;;6.57;3.00;;;17.20;99.90;;;;;;5057046;28;20048;-61
2023/06/20 00:36:53;;;;;;;5.18;3.38;;;17.10;99.90;;;;;;5077852;28;20420;-68
2023/06/20 00:39:20;;;;;;;5.95;2.60;;;17.10;99.90;;;;;;5070156;28;20044;-60
2023/06/20 00:41:49;;;;;;;4.18;2.60;;;17.00;99.90;;;;;;5040581;28;20061;-59
2023/06/20 00:44:16;;;;;;;3.95;2.67;;;17.00;99.90;;;;;;5056075;28;20057;-62
2023/06/20 00:46:44;;;;;;;7.78;2.95;;;17.00;99.90;;;;;;5050231;28;20503;-67
2023/06/20 00:49:12;;;;;;;4.70;2.60;;;16.90;99.90;;;;;;5070877;28;20036;-69
2023/06/20 00:51:40;;;;;;;4.90;2.83;;;16.90;99.90;;;;;;5061738;28;20036;-67
2023/06/20 00:54:10;;;;;;;;;;;16.90;99.90;;;;;;5060571;28;20388;-60
2023/06/20 00:56:38;;;;;;;4.90;2.85;;;16.80;99.90;;;;;;5065357;28;19927;-60
2023/06/20 00:59:06;;;;;;;7.20;3.03;;;16.80;99.90;;;;;;5061858;28;20072;-60
2023/06/20 01:01:33;;;;;;;5.80;3.15;;;16.70;99.90;;;;;;5056315;28;20043;-69
2023/06/20 01:04:03;;;;;;;4.85;2.58;;;16.70;99.90;;;;;;5050891;28;20040;-61
2023/06/20 01:06:59;;;;;;;9.05;2.90;;;16.60;99.90;;;;;;5048107;28;20048;-66
2023/06/20 01:09:44;;;;;;;6.53;2.97;;;16.60;99.90;;;;;;5065781;28;20065;-60
2023/06/20 01:12:37;;;;;;;6.53;2.45;;;16.60;99.90;;;;;;5064008;28;20051;-61
2023/06/20 01:15:28;;;;;;;5.93;3.85;;;16.60;99.90;;;;;;5049520;28;20048;-62
2023/06/20 01:18:11;;;;;;;7.30;3.88;;;16.70;99.90;;;;;;5063596;28;20520;-61
2023/06/20 01:20:46;;;;;;;5.50;2.70;;;16.70;99.90;;;;;;5049955;28;20044;-61
2023/06/20 01:23:25;;;;;;;4.80;2.65;;;16.60;99.90;;;;;;5050430;28;20047;-61
2023/06/20 01:26:01;;;;;;;4.95;2.70;;;16.70;99.90;;;;;;5068846;28;20045;-60
2023/06/20 01:28:41;;;;;;;4.07;2.63;;;16.60;99.90;;;;;;5067515;28;20051;-60
2023/06/20 01:31:18;;;;;;;6.72;3.05;;;16.90;99.90;;;;;;5060308;28;20033;-61
2023/06/20 01:33:53;;;;;;;5.53;3.50;;;16.60;99.90;;;;;;5055311;28;20049;-60
2023/06/20 01:36:22;;;;;;;6.22;3.22;;;16.50;99.90;;;;;;5075230;28;20493;-60
2023/06/20 01:38:56;;;;;;;7.28;3.05;;;16.50;99.90;;;;;;5066102;28;20048;-60
2023/06/20 01:41:26;;;;;;;4.75;2.80;;;16.50;99.90;;;;;;5070588;28;20056;-61
2023/06/20 01:43:56;;;;;;;5.25;2.67;;;16.50;99.90;;;;;;5058336;28;20044;-64
2023/06/20 01:46:24;;;;;;;6.40;2.95;;;16.50;99.90;;;;;;5060443;28;20037;-61
2023/06/20 01:48:53;;;;;;;7.20;2.78;;;16.40;99.90;;;;;;5069417;28;20040;-59
2023/06/20 01:51:22;;;;;;;7.65;2.92;;;16.30;99.90;;;;;;5054572;28;20056;-68
2023/06/20 01:53:51;;;;;;;8.55;2.78;;;16.30;99.90;;;;;;5056490;28;20095;-68
2023/06/20 01:56:19;;;;;;;3.35;2.10;;;16.20;99.90;;;;;;5058306;28;20061;-61
2023/06/20 01:58:48;;;;;;;4.90;2.90;;;16.20;99.90;;;;;;5066679;28;20048;-60
2023/06/20 02:01:17;;;;;;;5.82;2.67;;;16.10;99.90;;;;;;5052036;28;20520;-63
2023/06/20 02:03:47;;;;;;;4.90;2.70;;;16.10;99.90;;;;;;5071629;28;20044;-68
2023/06/20 02:06:15;;;;;;;;;;;16.10;99.90;;;;;;5072173;28;20044;-60
2023/06/20 02:08:44;;;;;;;6.75;3.15;;;16.10;99.90;;;;;;5068378;28;19927;-62
2023/06/20 02:11:14;;;;;;;5.07;3.00;;;16.10;99.90;;;;;;5049479;28;20068;-63
2023/06/20 02:13:43;;;;;;;4.53;2.88;;;16.00;99.90;;;;;;5063598;28;20045;-64
2023/06/20 02:16:12;;;;;;;5.70;2.55;;;16.00;99.90;;;;;;5069723;28;20049;-61
2023/06/20 02:18:40;;;;;;;5.77;2.77;;;16.00;99.90;;;;;;5071313;28;20041;-60
2023/06/20 02:21:13;;;;;;;4.68;2.72;;;15.90;99.90;;;;;;5059643;28;20048;-59
2023/06/20 02:23:42;;;;;;;7.60;2.88;;;15.90;99.90;;;;;;5051338;28;20048;-62
2023/06/20 02:26:16;;;;;;;6.35;2.83;;;15.90;99.90;;;;;;5055245;28;20041;-61
2023/06/20 02:28:49;;;;;;;7.30;2.80;;;15.90;99.90;;;;;;5067976;28;20060;-60
2023/06/20 02:31:21;;;;;;;6.57;3.28;;;15.90;99.90;;;;;;5072035;28;20044;-59
2023/06/20 02:33:53;;;;;;;4.05;2.50;;;15.90;99.90;;;;;;5071023;28;20511;-66
2023/06/20 02:36:26;;;;;;;7.25;2.53;;;15.90;99.90;;;;;;5067231;28;20055;-65
2023/06/20 02:38:55;;;;;;;7.60;2.90;;;15.90;99.90;;;;;;5056693;28;20682;-62
2023/06/20 02:41:23;;;;;;;5.57;3.00;;;15.90;99.90;;;;;;5055999;28;20409;-60
2023/06/20 02:43:51;;;;;;;4.05;2.92;;;15.90;99.90;;;;;;5072098;28;20501;-60
2023/06/20 02:47:02;;;;;;;8.73;3.78;;;16.00;99.90;;;;;;5070869;28;20621;-60
2023/06/20 02:49:43;;;;;;;5.20;2.80;;;16.00;99.90;;;;;;5030824;28;20053;-65
2023/06/20 02:52:48;;;;;;;6.38;2.63;;;16.00;99.90;;;;;;5061210;28;20056;-60
2023/06/20 02:55:34;;;;;;;3.55;2.55;;;16.00;99.90;;;;;;5032654;28;20044;-61
2023/06/20 02:58:12;;;;;;;5.95;3.00;;;16.00;99.90;;;;;;5063229;28;20045;-60
2023/06/20 03:00:48;;;;;;;10.55;3.53;;;15.90;99.90;;;;;;5048956;28;20585;-60
2023/06/20 03:03:21;;;;;;;4.55;3.00;;;15.90;99.90;;;;;;5061476;28;20059;-61
2023/06/20 03:05:50;;;;;;;5.63;2.88;;;15.90;99.90;;;;;;5071440;28;20036;-62
2023/06/20 03:08:20;;;;;;;4.82;3.28;;;15.90;99.90;;;;;;5077413;28;20044;-60
2023/06/20 03:10:49;;;;;;;9.13;3.30;;;15.90;99.90;;;;;;5069090;28;20051;-61
2023/06/20 03:13:17;;;;;;;8.90;3.10;;;15.90;99.90;;;;;;5062381;28;20298;-60
2023/06/20 03:15:50;;;;;;;7.22;3.13;;;15.90;99.90;;;;;;5069852;28;20044;-60
2023/06/20 03:18:19;;;;;;;11.00;3.83;;;15.90;99.90;;;;;;5070030;28;20411;-60
2023/06/20 03:20:48;;;;;;;5.75;2.97;;;16.00;99.90;;;;;;5052019;28;20668;-60
2023/06/20 03:23:16;;;;;;;10.07;2.97;;;16.00;99.90;;;;;;5053951;28;20036;-60
2023/06/20 03:25:45;;;;;;;10.18;3.05;;;16.00;99.90;;;;;;5058464;28;20053;-60
2023/06/20 03:28:13;;;;;;;5.65;3.40;;;16.00;99.90;;;;;;5061789;28;20411;-61
2023/06/20 03:30:44;;;;;;;6.53;3.08;;;16.00;99.90;;;;;;5061292;28;20052;-64
2023/06/20 03:33:12;;;;;;;7.10;3.28;;;16.00;99.90;;;;;;5049767;28;20076;-60
2023/06/20 03:35:40;;;;;;;6.38;3.08;;;16.00;99.90;;;;;;5041135;28;20045;-61
2023/06/20 03:38:08;;;;;;;7.78;3.25;;;16.00;99.90;;;;;;5059287;28;20048;-61
2023/06/20 03:40:35;;;;;;;9.63;3.72;;;16.10;99.90;;;;;;5054272;28;20681;-60
2023/06/20 03:43:03;;;;;;;9.27;3.80;;;16.00;99.90;;;;;;5069909;28;20036;-61
2023/06/20 03:45:31;;;;;;;9.60;4.43;;;16.00;99.90;;;;;;5064760;28;20087;-60
2023/06/20 03:47:59;;;;;;;7.55;3.72;;;16.00;99.90;;;;;;5068859;28;20041;-60
2023/06/20 03:50:27;;;;;;;8.35;3.58;;;16.00;99.90;;;;;;5069965;28;20052;-60
2023/06/20 03:52:57;;;;;;;8.18;3.95;;;16.00;99.90;;;;;;5070008;28;20420;-60
2023/06/20 03:55:25;;;;;;;5.57;4.00;;;16.00;99.90;;;;;;5053304;28;20052;-63
2023/06/20 03:57:55;;;;;;;6.33;3.27;;;16.00;99.90;;;;;;5053142;28;20411;-60
2023/06/20 04:00:23;;;;;;;5.25;3.47;;;16.00;99.90;;;;;;5069917;28;20056;-60
2023/06/20 04:02:51;;;;;;;8.00;3.40;;;16.00;99.90;;;;;;5069861;28;20052;-60
2023/06/20 04:05:18;;;;;;;8.07;3.38;;;16.00;99.90;;;;;;5059252;28;20048;-60
2023/06/20 04:07:46;;;;;;;10.15;4.05;;;16.00;99.90;;;;;;5070980;28;20048;-60
2023/06/20 04:10:14;;;;;;;4.63;3.10;;;16.00;99.90;;;;;;5071217;28;20047;-61
2023/06/20 04:12:42;;;;;;;7.30;3.42;;;16.00;99.90;;;;;;5067546;28;20416;-60
2023/06/20 04:15:10;;;;;;;6.50;3.35;;;16.00;99.90;;;;;;5053408;28;20052;-60
2023/06/20 04:17:40;;;;;;;6.60;3.30;;;16.10;99.90;;;;;;5056617;28;20056;-62
2023/06/20 04:20:12;;;;;;;12.10;3.83;;;16.10;99.90;;;;;;5062754;28;20052;-60
2023/06/20 04:22:44;;;;;;;6.75;3.28;;;16.10;99.90;;;;;;5073599;28;20049;-61
2023/06/20 04:25:16;;;;;;;6.15;3.63;;;16.10;99.90;;;;;;5069886;28;20044;-60
2023/06/20 04:27:53;;;;;;;5.55;3.67;;;16.10;99.90;;;;;;5073169;28;20047;-63
2023/06/20 04:30:23;;;;;;;5.30;3.35;;;16.10;99.90;;;;;;5073348;28;20048;-60
2023/06/20 04:32:53;;;;;;;13.93;3.65;;;16.10;99.90;;;;;;5073231;28;20044;-67
2023/06/20 04:35:21;;;;;;;7.15;3.42;;;16.10;99.90;;;;;;5081061;28;20498;-59
2023/06/20 04:37:51;;;;;;;7.22;3.83;;;16.10;99.90;;;;;;5056221;28;20052;-60
2023/06/20 04:40:21;;;;;;;6.07;3.90;;;16.10;99.90;;;;;;5056508;28;20060;-60
2023/06/20 04:42:49;;;;;;;7.25;3.42;;;16.10;99.90;;;;;;5065237;28;20041;-59
2023/06/20 04:45:16;;;;;;;8.55;3.30;;;16.10;99.90;;;;;;5053008;28;20519;-61
2023/06/20 04:47:44;;;;;;;11.63;3.55;;;16.10;99.90;;;;;;5057337;28;20037;-61
2023/06/20 04:50:12;;;;;;;7.88;4.03;;;16.10;99.90;;;;;;5058549;28;20037;-59
2023/06/20 04:52:39;;;;;;;6.82;4.10;;;16.10;99.90;;;;;;5048582;28;20049;-59
2023/06/20 04:55:07;;;;;;;6.28;3.80;;;16.20;99.90;;;;;;5049380;28;20052;-61
2023/06/20 04:57:35;;;;;;;10.20;3.70;;;16.20;99.90;;;;;;5054575;28;20401;-60
2023/06/20 05:00:07;;;;;;;11.30;4.68;;;16.20;99.90;;;;;;5069508;28;20040;-60
2023/06/20 05:02:36;;;;;;;7.18;4.18;;;16.20;99.90;;;;;;5059663;28;20104;-66
2023/06/20 05:05:05;;;;;;;10.75;4.68;;;16.20;99.90;;;;;;5060503;28;20059;-61
2023/06/20 05:07:33;;;;;;;7.97;4.13;;;16.20;99.90;;;;;;5067484;28;20040;-61
2023/06/20 05:10:02;;;;;;;10.52;4.75;;;16.20;99.90;;;;;;5065365;28;20052;-67
2023/06/20 05:12:29;;;;;;;7.93;3.80;;;16.30;99.90;;;;;;5065951;28;20411;-62
2023/06/20 05:14:57;;;;;;;10.70;3.85;;;16.30;99.90;;;;;;5052856;28;20044;-61
2023/06/20 05:17:25;;;;;;;8.77;3.80;;;16.30;99.90;;;;;;5058140;28;20342;-61
2023/06/20 05:19:53;;;;;;;8.52;4.07;;;16.30;99.90;;;;;;5054120;28;20057;-62
2023/06/20 05:22:21;;;;;;;9.20;4.05;;;16.30;99.90;;;;;;5051097;28;20060;-61
2023/06/20 05:24:49;;;;;;;9.82;4.35;;;16.30;99.90;;;;;;5069792;28;20059;-60
2023/06/20 05:27:16;;;;;;;7.65;4.65;;;16.30;99.90;;;;;;5066220;28;20052;-62
2023/06/20 05:29:46;;;;;;;7.82;4.70;;;16.40;99.90;;;;;;5068312;28;20048;-60
2023/06/20 05:32:13;;;;;;;6.63;4.00;;;16.40;99.90;;;;;;5073395;28;20482;-61
2023/06/20 05:34:41;;;;;;;9.32;4.18;;;16.40;99.90;;;;;;5064233;28;20169;-61
2023/06/20 05:37:09;;;;;;;14.55;5.03;;;16.30;99.90;;;;;;5050260;28;20049;-61
2023/06/20 05:39:36;;;;;;;13.27;5.20;;;16.40;99.90;;;;;;5069788;28;20400;-62
2023/06/20 05:42:04;;;;;;;11.70;5.38;;;16.40;99.90;;;;;;5067090;28;20052;-61
2023/06/20 05:44:32;;;;;;;12.32;4.85;;;16.40;99.90;;;;;;5058376;28;20045;-60
2023/06/20 05:47:00;;;;;;;14.32;4.53;;;16.40;99.90;;;;;;5047501;28;20401;-61
2023/06/20 05:49:27;;;;;;;13.35;4.68;;;16.30;99.90;;;;;;5053803;28;20045;-60
2023/06/20 05:51:55;;;;;;;12.52;5.03;;;16.40;99.90;;;;;;5031900;28;20052;-60
2023/06/20 05:54:24;;;;;;;17.73;5.68;;;16.40;99.90;;;;;;5066982;28;20052;-61
2023/06/20 05:56:52;;;;;;;11.30;4.88;;;16.40;99.90;;;;;;5067614;28;20373;-61
2023/06/20 05:59:20;;;;;;;14.27;5.00;;;16.40;99.90;;;;;;5066061;28;20048;-60
2023/06/20 06:01:48;;;;;;;13.98;5.68;;;16.40;99.90;;;;;;5062414;28;20048;-59
2023/06/20 06:04:16;;;;;;;9.73;5.38;;;16.40;99.90;;;;;;5058477;28;20052;-60
2023/06/20 06:06:44;;;;;;;10.80;5.45;;;16.40;99.90;;;;;;5085539;28;20492;-69
2023/06/20 06:09:12;;;;;;;11.93;4.63;;;16.40;99.90;;;;;;5068138;28;20044;-61
2023/06/20 06:11:39;;;;;;;14.80;5.30;;;16.40;99.90;;;;;;5069040;28;20036;-61
2023/06/20 06:14:07;;;;;;;13.45;5.75;;;16.50;99.90;;;;;;5074523;28;20090;-63
2023/06/20 06:16:35;;;;;;;13.50;5.60;;;16.40;99.90;;;;;;5087730;28;20484;-61
2023/06/20 06:19:03;;;;;;;12.70;6.55;;;16.40;99.90;;;;;;5065028;28;20056;-61
2023/06/20 06:21:32;;;;;;;11.18;5.97;;;16.40;99.90;;;;;;5049027;28;20056;-62
2023/06/20 06:23:59;;;;;;;13.05;6.28;;;16.40;99.90;;;;;;5055797;28;20059;-61
2023/06/20 06:26:27;;;;;;;11.18;6.57;;;16.40;99.90;;;;;;5048620;28;20048;-69
2023/06/20 06:28:55;;;;;;;10.90;7.00;;;16.40;99.90;;;;;;5069632;28;20514;-60
2023/06/20 06:31:26;;;;;;;16.13;7.38;;;16.30;99.90;;;;;;5055041;28;20323;-60
2023/06/20 06:33:56;;;;;;;15.55;6.88;;;16.30;99.90;;;;;;5062882;28;20493;-62
2023/06/20 06:36:31;;;;;;;15.57;7.60;;;16.30;99.90;;;;;;5059288;28;20049;-61
2023/06/20 06:38:59;;;;;;;19.05;7.40;;;16.30;99.90;;;;;;5058064;28;20040;-64
2023/06/20 06:41:27;;;;;;;17.35;6.95;;;16.30;99.90;;;;;;5058253;28;20053;-63
2023/06/20 06:43:55;;;;;;;13.18;7.40;;;16.30;99.90;;;;;;5065329;28;20055;-61
2023/06/20 06:46:23;;;;;;;14.93;7.18;;;16.40;99.90;;;;;;5054779;28;20045;-64
2023/06/20 06:48:51;;;;;;;13.77;7.00;;;16.40;99.90;;;;;;5065816;28;20484;-63
2023/06/20 06:51:18;;;;;;;14.77;6.60;;;16.30;99.90;;;;;;5034822;28;20041;-61
2023/06/20 06:53:46;;;;;;;14.07;7.05;;;16.40;99.90;;;;;;5061382;28;20053;-63
2023/06/20 06:56:14;;;;;;;14.63;7.32;;;16.40;99.90;;;;;;5064322;28;20048;-64
2023/06/20 06:58:42;;;;;;;16.52;8.20;;;16.30;99.90;;;;;;5056850;28;20058;-69
2023/06/20 07:01:09;;;;;;;19.05;7.15;;;16.30;99.90;;;;;;5051419;28;20044;-61
2023/06/20 07:03:37;;;;;;;15.77;7.47;;;16.30;99.90;;;;;;5043272;28;20405;-69
2023/06/20 07:06:05;;;;;;;15.75;7.85;;;16.30;99.90;;;;;;5045771;28;20052;-65
2023/06/20 07:08:33;;;;;;;17.98;8.18;;;16.30;99.90;;;;;;5051127;28;20045;-62
2023/06/20 07:11:00;;;;;;;17.20;7.82;;;16.30;99.90;;;;;;5062781;28;20056;-62
2023/06/20 07:13:28;;;;;;;15.88;8.48;;;16.30;99.90;;;;;;5060976;28;20044;-61
2023/06/20 07:15:56;;;;;;;30.23;9.82;;;16.30;99.90;;;;;;5056596;28;20044;-62
2023/06/20 07:18:23;;;;;;;18.20;9.15;;;16.30;99.90;;;;;;5057646;28;20063;-61
2023/06/20 07:20:51;;;;;;;22.10;9.18;;;16.30;99.90;;;;;;5065906;28;20044;-61
2023/06/20 07:23:19;;;;;;;19.20;8.43;;;16.30;99.90;;;;;;5067812;28;20488;-64
2023/06/20 07:25:47;;;;;;;16.73;8.30;;;16.30;99.90;;;;;;5063647;28;20051;-60
2023/06/20 07:28:14;;;;;;;16.52;8.65;;;16.30;99.90;;;;;;5058215;28;20052;-62
2023/06/20 07:30:42;;;;;;;18.27;8.50;;;16.30;99.90;;;;;;5050045;28;20037;-66
2023/06/20 07:33:10;;;;;;;18.92;8.63;;;16.30;99.90;;;;;;5074262;28;20068;-65
2023/06/20 07:35:37;;;;;;;21.67;8.45;;;16.30;99.90;;;;;;5074223;28;20036;-70
2023/06/20 07:38:05;;;;;;;17.38;8.48;;;16.30;99.90;;;;;;5066223;28;20393;-72
2023/06/20 07:40:33;;;;;;;15.18;8.68;;;16.30;99.90;;;;;;5053523;28;20044;-65
2023/06/20 07:43:01;;;;;;;17.08;8.13;;;16.30;99.90;;;;;;5059173;28;20500;-64
2023/06/20 07:45:29;;;;;;;15.48;8.77;;;16.30;99.90;;;;;;5048541;28;20041;-63
2023/06/20 07:47:57;;;;;;;20.33;9.57;;;16.30;99.90;;;;;;5055048;28;20056;-60
2023/06/20 07:50:24;;;;;;;17.92;9.73;;;16.30;99.90;;;;;;5056736;28;20061;-60
2023/06/20 07:52:52;;;;;;;17.88;9.63;;;16.40;99.90;;;;;;5038077;28;20037;-70
2023/06/20 07:55:20;;;;;;;14.57;9.02;;;16.30;99.90;;;;;;5054393;28;20654;-61
2023/06/20 07:57:58;;;;;;;14.23;8.95;;;16.40;99.90;;;;;;5068097;28;20052;-61
2023/06/20 08:00:27;;;;;;;20.15;10.02;;;16.40;99.90;;;;;;5054298;28;20053;-61
2023/06/20 08:02:56;;;;;;;46.38;10.13;;;16.50;99.90;;;;;;5061448;28;20422;-60
2023/06/20 08:05:24;;;;;;;16.45;9.85;;;16.50;99.90;;;;;;5066823;28;20055;-60
2023/06/20 08:07:52;;;;;;;16.80;8.73;;;16.50;99.90;;;;;;5056594;28;20055;-63
2023/06/20 08:10:20;;;;;;;15.32;8.63;;;16.60;99.90;;;;;;5070758;28;20040;-61
2023/06/20 08:12:48;;;;;;;16.20;8.85;;;16.60;99.90;;;;;;5071302;28;20063;-65
2023/06/20 08:15:15;;;;;;;20.10;11.00;;;16.60;99.90;;;;;;5069427;28;20037;-70
2023/06/20 08:17:43;;;;;;;22.58;10.48;;;16.60;99.90;;;;;;5063595;28;20057;-62
2023/06/20 08:20:12;;;;;;;22.40;11.50;;;16.60;99.90;;;;;;5048452;28;20041;-68
2023/06/20 08:22:40;;;;;;;18.98;11.18;;;16.60;99.90;;;;;;5057194;28;20048;-62
2023/06/20 08:25:08;;;;;;;23.98;12.07;;;16.60;99.90;;;;;;5061670;28;20037;-64
2023/06/20 08:27:35;;;;;;;27.05;12.63;;;16.60;99.90;;;;;;5066744;28;20044;-63
2023/06/20 08:30:03;;;;;;;22.95;11.20;;;16.70;99.90;;;;;;5067606;28;20392;-60
2023/06/20 08:32:31;;;;;;;20.17;10.48;;;16.70;99.90;;;;;;5052500;28;20045;-67
2023/06/20 08:34:59;;;;;;;20.17;10.75;;;16.80;99.90;;;;;;5056109;28;20649;-60
2023/06/20 08:37:27;;;;;;;27.00;10.40;;;16.70;99.90;;;;;;5051797;28;20056;-67
2023/06/20 08:39:56;;;;;;;21.40;9.60;;;16.70;99.90;;;;;;5066550;28;20496;-69
2023/06/20 08:42:24;;;;;;;14.00;7.63;;;16.90;99.90;;;;;;5069885;28;20044;-62
2023/06/20 08:44:52;;;;;;;13.32;7.68;;;16.90;99.90;;;;;;5054504;28;20397;-61
2023/06/20 08:47:25;;;;;;;17.60;8.38;;;16.90;99.90;;;;;;5056157;28;20048;-61
2023/06/20 08:49:53;;;;;;;12.15;6.80;;;16.90;99.90;;;;;;5058212;28;20510;-61
2023/06/20 08:52:47;;;;;;;18.33;7.40;;;16.90;99.90;;;;;;5059864;28;20053;-62
2023/06/20 08:55:15;;;;;;;14.98;7.28;;;16.90;99.90;;;;;;5047684;28;20052;-60
2023/06/20 08:57:46;;;;;;;17.50;7.25;;;17.00;99.90;;;;;;5052203;28;20068;-60
2023/06/20 09:00:19;;;;;;;16.08;7.03;;;17.00;99.90;;;;;;5054392;28;20048;-61
2023/06/20 09:02:54;;;;;;;13.48;7.22;;;17.00;99.90;;;;;;5057266;28;20048;-60
2023/06/20 09:05:22;;;;;;;19.13;7.60;;;17.00;99.90;;;;;;5078074;28;20609;-59
2023/06/20 09:07:52;;;;;;;15.98;7.20;;;17.00;99.90;;;;;;5061537;28;20064;-61
2023/06/20 09:10:23;;;;;;;12.43;6.60;;;17.00;99.90;;;;;;5069534;28;20051;-60
2023/06/20 09:12:52;;;;;;;12.48;5.95;;;17.00;99.90;;;;;;5069856;28;20055;-59
2023/06/20 09:15:22;;;;;;;15.70;6.70;;;17.00;99.90;;;;;;5055135;28;20515;-60
2023/06/20 09:17:55;;;;;;;20.58;7.22;;;17.00;99.90;;;;;;5056844;28;20040;-61
2023/06/20 09:20:27;;;;;;;15.45;8.00;;;17.00;99.90;;;;;;5067239;28;20052;-63
2023/06/20 09:22:56;;;;;;;18.55;8.20;;;17.00;99.90;;;;;;5056198;28;20041;-61
2023/06/20 09:25:26;;;;;;;13.13;7.57;;;17.00;99.90;;;;;;5054002;28;20508;-63
2023/06/20 09:27:55;;;;;;;20.40;8.40;;;17.00;99.90;;;;;;5058788;28;20045;-62
2023/06/20 09:30:23;;;;;;;13.50;6.45;;;17.00;99.90;;;;;;5050050;28;20522;-60
2023/06/20 09:32:53;;;;;;;10.90;6.45;;;17.00;99.90;;;;;;5071484;28;20053;-59
2023/06/20 09:35:21;;;;;;;12.00;6.20;;;16.90;99.90;;;;;;5065366;28;20044;-63
2023/06/20 09:37:51;;;;;;;11.20;6.15;;;16.90;99.90;;;;;;5052148;28;20637;-57
2023/06/20 09:40:20;;;;;;;15.57;6.72;;;16.90;99.90;;;;;;5049610;28;20045;-59
2023/06/20 09:42:48;;;;;;;11.68;6.43;;;16.80;99.90;;;;;;5067534;28;20067;-60
2023/06/20 09:45:16;;;;;;;12.15;5.85;;;16.80;99.90;;;;;;5053479;28;20043;-66
2023/06/20 09:47:45;;;;;;;10.68;6.97;;;16.80;99.90;;;;;;5060062;28;20476;-60
2023/06/20 09:50:18;;;;;;;17.08;6.70;;;16.70;99.90;;;;;;5074050;28;20047;-64
2023/06/20 09:52:51;;;;;;;14.48;6.97;;;16.70;99.90;;;;;;5063535;28;20408;-61
2023/06/20 09:55:20;;;;;;;9.43;5.68;;;16.70;99.90;;;;;;5049689;28;20048;-60
2023/06/20 09:57:51;;;;;;;11.25;6.68;;;16.70;99.90;;;;;;5055740;28;20053;-59
2023/06/20 10:00:19;;;;;;;16.98;6.90;;;16.70;99.90;;;;;;5066532;28;20049;-66
2023/06/20 10:02:48;;;;;;;9.60;6.25;;;16.70;99.90;;;;;;5055883;28;20056;-58
2023/06/20 10:05:20;;;;;;;11.25;5.85;;;16.80;99.90;;;;;;5068012;28;20043;-60
2023/06/20 10:07:49;;;;;;;12.38;5.05;;;16.80;99.90;;;;;;5060057;28;20047;-60
2023/06/20 10:10:17;;;;;;;9.60;4.55;;;16.70;99.90;;;;;;5060234;28;20049;-60
2023/06/20 10:12:46;;;;;;;8.02;3.60;;;16.70;99.90;;;;;;5054565;28;20041;-61
2023/06/20 10:15:15;;;;;;;6.20;3.45;;;16.70;99.90;;;;;;5049439;28;20053;-62
2023/06/20 10:17:47;;;;;;;4.93;2.88;;;16.70;99.90;;;;;;5051128;28;20048;-61
2023/06/20 10:20:28;;;;;;;6.35;3.60;;;16.60;99.90;;;;;;5060318;28;20203;-62
2023/06/20 10:23:03;;;;;;;6.85;3.30;;;16.50;99.90;;;;;;5049597;28;20503;-74
2023/06/20 10:25:32;;;;;;;6.47;3.33;;;16.50;99.90;;;;;;5058029;28;20040;-63
2023/06/20 10:28:05;;;;;;;5.45;3.30;;;16.50;99.90;;;;;;5067461;28;20489;-65
2023/06/20 10:30:50;;;;;;;10.02;3.47;;;16.50;99.90;;;;;;5056851;28;20041;-60
2023/06/20 10:33:31;;;;;;;6.75;3.95;;;16.50;99.90;;;;;;5059158;28;20052;-60
2023/06/20 10:36:02;;;;;;;5.03;3.30;;;16.60;99.90;;;;;;5060114;28;20049;-62
2023/06/20 10:38:37;;;;;;;13.40;3.75;;;16.60;99.90;;;;;;5051134;28;20060;-66
2023/06/20 10:41:21;;;;;;;11.05;4.05;;;16.60;99.90;;;;;;5061228;28;20044;-63
2023/06/20 10:44:26;;;;;;;8.80;3.40;;;16.70;99.90;;;;;;5075570;28;20060;-61
2023/06/20 10:46:54;;;;;;;6.32;3.90;;;16.70;99.90;;;;;;5048338;28;20098;-62
2023/06/20 10:49:22;;;;;;;8.15;3.55;;;16.80;99.90;;;;;;5053672;28;20048;-65
2023/06/20 10:51:53;;;;;;;11.00;3.67;;;16.80;99.90;;;;;;5061389;28;20048;-60
2023/06/20 10:54:21;;;;;;;9.25;3.83;;;16.90;99.90;;;;;;5051402;28;20047;-61
2023/06/20 10:56:49;;;;;;;8.02;4.30;;;17.00;99.90;;;;;;5056306;28;20055;-62
2023/06/20 10:59:19;;;;;;;8.27;4.63;;;17.00;99.90;;;;;;5067986;28;20040;-62
2023/06/20 11:01:47;;;;;;;;;;;17.10;99.90;;;;;;5062026;28;20056;-60
2023/06/20 11:04:16;;;;;;;6.88;4.47;;;17.10;99.90;;;;;;5058085;28;19920;-61
2023/06/20 11:06:47;;;;;;;12.30;4.70;;;17.30;99.90;;;;;;5062989;28;20314;-61
2023/06/20 11:09:19;;;;;;;5.22;2.53;;;17.30;99.90;;;;;;5055057;28;20403;-62
2023/06/20 11:11:48;;;;;;;4.78;2.47;;;17.30;99.90;;;;;;5068378;28;20568;-61
2023/06/20 11:14:19;;;;;;;6.70;2.85;;;17.30;99.90;;;;;;5064936;28;20067;-61
2023/06/20 11:16:48;;;;;;;5.75;3.20;;;17.30;99.90;;;;;;5059620;28;20041;-61
2023/06/20 11:19:20;;;;;;;6.72;3.20;;;17.30;99.90;;;;;;5063186;28;20064;-60
2023/06/20 11:22:04;;;;;;;5.65;2.80;;;17.30;99.90;;;;;;5050436;28;20037;-59
2023/06/20 11:24:35;;;;;;;3.33;2.50;;;17.40;99.90;;;;;;5052439;28;20045;-64
2023/06/20 11:27:13;;;;;;;3.58;1.90;;;17.50;99.90;;;;;;5060089;28;20411;-69
2023/06/20 11:29:42;;;;;;;2.83;2.08;;;17.60;99.90;;;;;;5060613;28;20040;-61
2023/06/20 11:32:11;;;;;;;2.38;1.92;;;17.70;99.90;;;;;;5065672;28;20037;-73
2023/06/20 11:35:02;;;;;;;2.65;1.70;;;17.80;99.90;;;;;;5067671;28;20059;-61
2023/06/20 11:37:30;;;;;;;4.38;1.90;;;17.80;99.90;;;;;;5062519;28;20045;-62
2023/06/20 11:39:58;;;;;;;2.45;1.92;;;17.90;99.90;;;;;;5055221;28;20048;-60
2023/06/20 11:42:33;;;;;;;3.33;2.30;;;18.10;99.90;;;;;;5059115;28;20064;-63
2023/06/20 11:45:08;;;;;;;3.35;2.08;;;18.40;99.90;;;;;;5055868;28;20630;-60
2023/06/20 11:47:35;;;;;;;4.40;2.83;;;18.40;99.90;;;;;;5030680;28;20040;-66
2023/06/20 11:50:05;;;;;;;4.30;2.00;;;18.60;99.90;;;;;;5067774;28;20051;-62
2023/06/20 11:52:34;;;;;;;7.85;1.95;;;18.80;99.90;;;;;;5058766;28;20043;-60
2023/06/20 11:55:04;;;;;;;2.13;1.80;;;18.90;99.90;;;;;;5046890;28;20053;-59
2023/06/20 11:57:32;;;;;;;5.32;1.80;;;;;;;;;;5051272;28;20036;-61
2023/06/20 12:00:06;;;;;;;3.40;1.92;;;19.10;99.90;;;;;;5055927;28;20070;-66
2023/06/20 12:02:38;;;;;;;3.08;2.03;;;19.10;99.90;;;;;;5053271;28;20041;-60
2023/06/20 12:05:07;;;;;;;2.08;1.60;;;19.10;99.90;;;;;;5071578;28;20518;-62
2023/06/20 12:07:52;;;;;;;3.00;1.90;;;19.30;99.90;;;;;;5059613;28;20049;-61
2023/06/20 12:10:23;;;;;;;4.30;2.08;;;19.50;99.90;;;;;;5046945;28;20499;-61
2023/06/20 12:12:52;;;;;;;4.70;1.95;;;19.60;99.90;;;;;;5055737;28;20052;-63
2023/06/20 12:15:20;;;;;;;3.28;2.50;;;19.70;99.90;;;;;;5055512;28;20044;-62
2023/06/20 12:17:47;;;;;;;4.80;2.50;;;19.80;99.90;;;;;;5051765;28;20053;-63
2023/06/20 12:20:15;;;;;;;4.55;2.22;;;19.70;99.90;;;;;;5047693;28;20258;-62
2023/06/20 12:23:02;;;;;;;4.35;2.25;;;19.70;99.90;;;;;;5060758;28;20052;-65
2023/06/20 12:25:31;;;;;;;4.45;2.17;;;19.50;99.90;;;;;;5069038;28;20373;-73
2023/06/20 12:28:01;;;;;;;4.28;2.85;;;19.50;99.90;;;;;;5058673;28;20040;-77
2023/06/20 12:30:30;;;;;;;4.67;2.90;;;19.20;99.90;;;;;;5051139;28;20040;-63
2023/06/20 12:33:02;;;;;;;5.55;2.97;;;19.20;99.90;;;;;;5060760;28;20622;-63
2023/06/20 12:35:30;;;;;;;4.43;2.53;;;19.10;99.90;;;;;;5067778;28;20047;-70
2023/06/20 12:37:58;;;;;;;3.30;2.22;;;19.00;99.90;;;;;;5061407;28;20076;-67
2023/06/20 12:40:26;;;;;;;6.30;2.40;;;18.50;99.90;;;;;;5063841;28;20033;-66
2023/06/20 12:42:54;;;;;;;3.20;2.00;;;18.90;99.90;;;;;;5062361;28;20378;-71
2023/06/20 12:45:22;;;;;;;3.88;2.22;;;18.90;99.90;;;;;;5070990;28;20516;-73
2023/06/20 12:47:49;;;;;;;5.97;2.40;;;18.90;99.90;;;;;;5065703;28;20050;-77
2023/06/20 12:50:17;;;;;;;5.35;2.20;;;18.90;99.90;;;;;;5067263;28;20032;-62
2023/06/20 12:52:45;;;;;;;2.70;1.73;;;19.00;99.90;;;;;;5066083;28;20047;-76
2023/06/20 12:55:13;;;;;;;2.53;2.00;;;19.00;99.90;;;;;;5063924;28;20052;-62
2023/06/20 12:57:41;;;;;;;3.97;2.20;;;19.20;99.90;;;;;;5055507;28;20067;-74
2023/06/20 13:00:10;;;;;;;2.90;1.80;;;19.30;99.90;;;;;;5053133;28;20056;-68